createdAt,value
2023-05-13T00:00:45.269Z,13.16
2023-05-13T00:01:50.826Z,13.16
2023-05-13T00:03:00.871Z,13.15
2023-05-13T00:04:06.097Z,13.11
2023-05-13T00:05:12.770Z,13.07
2023-05-13T00:06:17.406Z,13.02
2023-05-13T00:07:23.811Z,12.99
2023-05-13T00:08:28.648Z,12.94
2023-05-13T00:09:34.556Z,12.88
2023-05-13T00:10:39.079Z,12.83
2023-05-13T00:11:45.516Z,12.80
2023-05-13T00:12:49.555Z,12.74
2023-05-13T00:13:54.132Z,12.70
2023-05-13T00:14:58.462Z,12.65
2023-05-13T00:16:06.112Z,12.63
2023-05-13T00:17:10.751Z,12.61
2023-05-13T00:18:19.261Z,12.58
2023-05-13T00:19:24.750Z,12.56
2023-05-13T00:20:31.743Z,12.55
2023-05-13T00:21:37.070Z,12.53
2023-05-13T00:22:43.378Z,12.52
2023-05-13T00:23:49.541Z,12.51
2023-05-13T00:24:56.325Z,12.50
2023-05-13T00:26:02.501Z,12.50
2023-05-13T00:27:08.108Z,12.48
2023-05-13T00:28:15.277Z,12.48
2023-05-13T00:29:20.618Z,12.47
2023-05-13T00:30:25.958Z,12.47
2023-05-13T00:31:32.096Z,12.46
2023-05-13T00:32:35.434Z,12.47
2023-05-13T00:33:43.003Z,12.48
2023-05-13T00:34:47.504Z,12.50
2023-05-13T00:35:52.689Z,12.52
2023-05-13T00:36:56.334Z,12.53
2023-05-13T00:38:02.353Z,12.54
2023-05-13T00:39:08.714Z,12.56
2023-05-13T00:40:24.946Z,12.57
2023-05-13T00:41:30.805Z,12.59
2023-05-13T00:42:35.083Z,12.58
2023-05-13T00:43:39.743Z,12.61
2023-05-13T00:44:45.881Z,12.64
2023-05-13T00:45:51.112Z,12.64
2023-05-13T00:46:58.065Z,12.63
2023-05-13T00:48:02.839Z,12.62
2023-05-13T00:49:10.015Z,12.63
2023-05-13T00:50:16.660Z,12.63
2023-05-13T00:51:22.654Z,12.61
2023-05-13T00:52:27.517Z,12.58
2023-05-13T00:53:35.938Z,12.56
2023-05-13T00:54:39.756Z,12.54
2023-05-13T00:55:45.078Z,12.52
2023-05-13T00:56:49.432Z,12.49
2023-05-13T00:57:55.680Z,12.46
2023-05-13T00:59:00.032Z,12.43
2023-05-13T01:00:07.452Z,12.37
2023-05-13T01:01:22.014Z,12.34
2023-05-13T01:02:44.744Z,12.31
2023-05-13T01:03:57.361Z,12.25
2023-05-13T01:05:15.728Z,12.22
2023-05-13T01:06:24.690Z,12.17
2023-05-13T01:07:37.544Z,12.15
2023-05-13T01:08:50.102Z,12.13
2023-05-13T01:10:06.655Z,12.10
2023-05-13T01:11:17.532Z,12.09
2023-05-13T01:12:27.837Z,12.09
2023-05-13T01:13:44.779Z,12.07
2023-05-13T01:14:59.536Z,12.06
2023-05-13T01:16:12.735Z,12.06
2023-05-13T01:17:24.221Z,12.06
2023-05-13T01:18:35.725Z,12.04
2023-05-13T01:19:43.646Z,12.05
2023-05-13T01:20:51.438Z,12.05
2023-05-13T01:21:56.943Z,12.05
2023-05-13T01:23:01.600Z,12.06
2023-05-13T01:24:08.771Z,12.06
2023-05-13T01:25:17.447Z,12.09
2023-05-13T01:26:22.165Z,12.09
2023-05-13T01:27:28.355Z,12.10
2023-05-13T01:28:33.108Z,12.13
2023-05-13T01:29:39.489Z,12.12
2023-05-13T01:30:44.419Z,12.14
2023-05-13T01:31:50.583Z,12.16
2023-05-13T01:32:54.652Z,12.16
2023-05-13T01:34:01.751Z,12.15
2023-05-13T01:35:07.939Z,12.18
2023-05-13T01:36:13.352Z,12.21
2023-05-13T01:37:19.623Z,12.23
2023-05-13T01:38:26.276Z,12.26
2023-05-13T01:39:32.816Z,12.28
2023-05-13T01:40:38.456Z,12.30
2023-05-13T01:41:43.457Z,12.32
2023-05-13T01:42:49.959Z,12.33
2023-05-13T01:43:54.670Z,12.34
2023-05-13T01:45:00.740Z,12.37
2023-05-13T01:46:05.216Z,12.39
2023-05-13T01:47:11.268Z,12.41
2023-05-13T01:48:14.590Z,12.42
2023-05-13T01:49:20.563Z,12.42
2023-05-13T01:50:24.737Z,12.43
2023-05-13T01:51:32.774Z,12.44
2023-05-13T01:52:39.227Z,12.46
2023-05-13T01:53:45.337Z,12.48
2023-05-13T01:54:49.170Z,12.48
2023-05-13T01:55:53.525Z,12.48
2023-05-13T01:56:58.997Z,12.49
2023-05-13T01:58:04.980Z,12.47
2023-05-13T01:59:11.885Z,12.45
2023-05-13T02:00:16.954Z,12.45
2023-05-13T02:01:28.947Z,12.43
2023-05-13T02:02:33.139Z,12.42
2023-05-13T02:03:42.626Z,12.41
2023-05-13T02:04:48.172Z,12.40
2023-05-13T02:05:53.862Z,12.38
2023-05-13T02:06:58.809Z,12.36
2023-05-13T02:08:04.912Z,12.36
2023-05-13T02:09:13.191Z,12.35
2023-05-13T02:10:19.148Z,12.34
2023-05-13T02:11:24.625Z,12.32
2023-05-13T02:12:29.923Z,12.30
2023-05-13T02:13:34.689Z,12.31
2023-05-13T02:14:40.965Z,12.28
2023-05-13T02:15:45.403Z,12.25
2023-05-13T02:16:49.574Z,12.24
2023-05-13T02:17:54.037Z,12.22
2023-05-13T02:18:59.439Z,12.21
2023-05-13T02:20:04.214Z,12.16
2023-05-13T02:21:09.904Z,12.16
2023-05-13T02:22:14.625Z,12.13
2023-05-13T02:23:20.412Z,12.13
2023-05-13T02:24:26.763Z,12.12
2023-05-13T02:25:33.254Z,12.13
2023-05-13T02:26:38.278Z,12.13
2023-05-13T02:27:42.703Z,12.12
2023-05-13T02:28:49.062Z,12.12
2023-05-13T02:29:53.117Z,12.11
2023-05-13T02:31:00.950Z,12.10
2023-05-13T02:32:06.335Z,12.09
2023-05-13T02:33:12.258Z,12.08
2023-05-13T02:34:16.926Z,12.07
2023-05-13T02:35:20.716Z,12.09
2023-05-13T02:36:25.892Z,12.08
2023-05-13T02:37:31.768Z,12.09
2023-05-13T02:38:37.830Z,12.08
2023-05-13T02:39:43.504Z,12.08
2023-05-13T02:40:50.090Z,12.05
2023-05-13T02:41:54.841Z,12.04
2023-05-13T02:42:58.626Z,12.02
2023-05-13T02:44:05.230Z,12.06
2023-05-13T02:45:11.295Z,12.03
2023-05-13T02:46:16.565Z,12.02
2023-05-13T02:47:19.978Z,12.06
2023-05-13T02:48:28.437Z,12.06
2023-05-13T02:49:33.037Z,12.07
2023-05-13T02:50:39.549Z,12.09
2023-05-13T02:51:43.036Z,12.09
2023-05-13T02:52:48.510Z,12.11
2023-05-13T02:53:54.463Z,12.13
2023-05-13T02:54:58.885Z,12.13
2023-05-13T02:56:03.955Z,12.13
2023-05-13T02:57:09.568Z,12.13
2023-05-13T02:58:14.017Z,12.16
2023-05-13T02:59:18.792Z,12.15
2023-05-13T03:00:32.012Z,12.17
2023-05-13T03:01:41.370Z,12.17
2023-05-13T03:02:48.368Z,12.16
2023-05-13T03:03:56.425Z,12.16
2023-05-13T03:05:02.091Z,12.15
2023-05-13T03:06:08.352Z,12.15
2023-05-13T03:07:11.868Z,12.16
2023-05-13T03:08:17.461Z,12.18
2023-05-13T03:09:21.915Z,12.18
2023-05-13T03:10:27.564Z,12.20
2023-05-13T03:11:33.541Z,12.20
2023-05-13T03:12:37.916Z,12.19
2023-05-13T03:13:42.748Z,12.18
2023-05-13T03:14:47.007Z,12.18
2023-05-13T03:15:52.649Z,12.17
2023-05-13T03:16:57.691Z,12.16
2023-05-13T03:18:02.115Z,12.12
2023-05-13T03:19:07.410Z,12.12
2023-05-13T03:20:13.571Z,12.11
2023-05-13T03:21:18.126Z,12.10
2023-05-13T03:22:23.388Z,12.10
2023-05-13T03:23:28.056Z,12.12
2023-05-13T03:24:34.391Z,12.15
2023-05-13T03:25:38.353Z,12.16
2023-05-13T03:26:43.676Z,12.17
2023-05-13T03:27:48.993Z,12.21
2023-05-13T03:28:54.385Z,12.22
2023-05-13T03:30:00.669Z,12.24
2023-05-13T03:31:07.304Z,12.22
2023-05-13T03:32:12.529Z,12.22
2023-05-13T03:33:19.204Z,12.24
2023-05-13T03:34:23.642Z,12.24
2023-05-13T03:35:28.957Z,12.24
2023-05-13T03:36:34.743Z,12.25
2023-05-13T03:37:40.469Z,12.25
2023-05-13T03:38:45.540Z,12.25
2023-05-13T03:39:51.739Z,12.25
2023-05-13T03:40:55.993Z,12.24
2023-05-13T03:42:00.620Z,12.23
2023-05-13T03:43:07.179Z,12.26
2023-05-13T03:44:12.870Z,12.23
2023-05-13T03:45:19.210Z,12.25
2023-05-13T03:46:23.610Z,12.25
2023-05-13T03:47:29.342Z,12.26
2023-05-13T03:48:33.883Z,12.26
2023-05-13T03:49:39.374Z,12.28
2023-05-13T03:50:45.774Z,12.28
2023-05-13T03:51:51.250Z,12.29
2023-05-13T03:52:55.334Z,12.30
2023-05-13T03:54:00.268Z,12.30
2023-05-13T03:55:07.913Z,12.28
2023-05-13T03:56:14.359Z,12.26
2023-05-13T03:57:18.448Z,12.24
2023-05-13T03:58:23.428Z,12.21
2023-05-13T03:59:27.665Z,12.20
2023-05-13T04:00:33.493Z,12.17
2023-05-13T04:01:37.969Z,12.14
2023-05-13T04:02:44.580Z,12.12
2023-05-13T04:03:49.991Z,12.11
2023-05-13T04:04:54.557Z,12.10
2023-05-13T04:05:57.662Z,12.08
2023-05-13T04:07:03.456Z,12.09
2023-05-13T04:08:07.159Z,12.10
2023-05-13T04:09:12.853Z,12.10
2023-05-13T04:10:18.413Z,12.12
2023-05-13T04:11:23.901Z,12.13
2023-05-13T04:12:27.701Z,12.12
2023-05-13T04:13:33.528Z,12.13
2023-05-13T04:14:38.601Z,12.15
2023-05-13T04:15:45.980Z,12.16
2023-05-13T04:16:49.500Z,12.16
2023-05-13T04:17:55.713Z,12.17
2023-05-13T04:19:02.306Z,12.17
2023-05-13T04:20:08.004Z,12.18
2023-05-13T04:21:12.009Z,12.19
2023-05-13T04:22:19.239Z,12.20
2023-05-13T04:23:23.372Z,12.21
2023-05-13T04:24:29.264Z,12.22
2023-05-13T04:25:38.635Z,12.21
2023-05-13T04:26:44.475Z,12.21
2023-05-13T04:27:48.864Z,12.22
2023-05-13T04:28:53.711Z,12.23
2023-05-13T04:29:59.013Z,12.23
2023-05-13T04:31:04.847Z,12.24
2023-05-13T04:32:08.610Z,12.24
2023-05-13T04:33:15.658Z,12.26
2023-05-13T04:34:21.101Z,12.28
2023-05-13T04:35:27.077Z,12.29
2023-05-13T04:36:30.973Z,12.32
2023-05-13T04:37:37.796Z,12.34
2023-05-13T04:38:43.614Z,12.37
2023-05-13T04:39:49.654Z,12.39
2023-05-13T04:40:55.322Z,12.42
2023-05-13T04:42:00.326Z,12.43
2023-05-13T04:43:04.508Z,12.46
2023-05-13T04:44:10.870Z,12.48
2023-05-13T04:45:15.124Z,12.48
2023-05-13T04:46:22.453Z,12.48
2023-05-13T04:47:26.740Z,12.50
2023-05-13T04:48:32.176Z,12.50
2023-05-13T04:49:36.581Z,12.52
2023-05-13T04:50:49.184Z,12.55
2023-05-13T04:51:55.213Z,12.55
2023-05-13T04:52:59.587Z,12.57
2023-05-13T04:54:04.005Z,12.60
2023-05-13T04:55:10.589Z,12.62
2023-05-13T04:56:18.178Z,12.62
2023-05-13T04:57:23.456Z,12.63
2023-05-13T04:58:27.397Z,12.66
2023-05-13T04:59:32.235Z,12.68
2023-05-13T05:00:36.933Z,12.72
2023-05-13T05:01:42.273Z,12.76
2023-05-13T05:02:47.574Z,12.80
2023-05-13T05:03:53.262Z,12.81
2023-05-13T05:04:58.914Z,12.84
2023-05-13T05:06:04.547Z,12.88
2023-05-13T05:07:09.182Z,12.89
2023-05-13T05:08:14.530Z,12.92
2023-05-13T05:09:19.519Z,12.97
2023-05-13T05:10:25.638Z,12.99
2023-05-13T05:11:31.789Z,13.02
2023-05-13T05:12:38.801Z,13.04
2023-05-13T05:13:42.915Z,13.10
2023-05-13T05:14:48.210Z,13.14
2023-05-13T05:15:53.348Z,13.18
2023-05-13T05:16:57.735Z,13.22
2023-05-13T05:18:02.101Z,13.26
2023-05-13T05:19:07.373Z,13.31
2023-05-13T05:20:12.327Z,13.40
2023-05-13T05:21:19.055Z,13.47
2023-05-13T05:22:24.031Z,13.53
2023-05-13T05:23:28.538Z,13.57
2023-05-13T05:24:32.744Z,13.64
2023-05-13T05:25:38.883Z,13.70
2023-05-13T05:26:45.165Z,13.78
2023-05-13T05:27:49.618Z,13.88
2023-05-13T05:28:55.680Z,13.99
2023-05-13T05:30:00.333Z,14.07
2023-05-13T05:31:06.506Z,14.17
2023-05-13T05:32:09.972Z,14.24
2023-05-13T05:33:15.488Z,14.29
2023-05-13T05:34:19.437Z,14.31
2023-05-13T05:35:25.031Z,14.36
2023-05-13T05:36:30.261Z,14.41
2023-05-13T05:37:38.575Z,14.48
2023-05-13T05:38:44.057Z,14.57
2023-05-13T05:39:49.798Z,14.76
2023-05-13T05:40:55.575Z,15.00
2023-05-13T05:42:04.484Z,15.21
2023-05-13T05:43:12.394Z,15.32
2023-05-13T05:44:17.647Z,15.46
2023-05-13T05:45:29.327Z,15.67
2023-05-13T05:46:34.793Z,15.90
2023-05-13T05:47:41.199Z,16.07
2023-05-13T05:48:46.917Z,16.24
2023-05-13T05:49:53.483Z,16.31
2023-05-13T05:50:58.455Z,16.44
2023-05-13T05:52:04.176Z,16.56
2023-05-13T05:53:10.086Z,16.61
2023-05-13T05:54:14.885Z,16.65
2023-05-13T05:55:18.630Z,16.65
2023-05-13T05:56:25.560Z,16.67
2023-05-13T05:57:32.174Z,16.69
2023-05-13T05:58:37.954Z,16.73
2023-05-13T05:59:42.986Z,16.77
2023-05-13T06:00:49.323Z,16.81
2023-05-13T06:01:53.963Z,16.88
2023-05-13T06:03:00.294Z,16.92
2023-05-13T06:04:05.860Z,17.00
2023-05-13T06:05:13.516Z,17.00
2023-05-13T06:06:18.730Z,16.99
2023-05-13T06:07:23.952Z,16.96
2023-05-13T06:08:30.748Z,16.91
2023-05-13T06:09:37.292Z,16.86
2023-05-13T06:10:44.536Z,16.82
2023-05-13T06:11:53.006Z,16.78
2023-05-13T06:13:04.606Z,16.73
2023-05-13T06:14:14.087Z,16.69
2023-05-13T06:15:22.020Z,16.64
2023-05-13T06:16:29.613Z,16.59
2023-05-13T06:17:40.108Z,16.56
2023-05-13T06:18:44.800Z,16.54
2023-05-13T06:19:51.889Z,16.52
2023-05-13T06:20:55.679Z,16.53
2023-05-13T06:22:03.263Z,16.54
2023-05-13T06:23:09.891Z,16.53
2023-05-13T06:24:16.144Z,16.56
2023-05-13T06:25:21.664Z,16.55
2023-05-13T06:26:25.964Z,16.57
2023-05-13T06:27:30.756Z,16.57
2023-05-13T06:28:37.714Z,16.58
2023-05-13T06:29:42.209Z,16.58
2023-05-13T06:30:48.180Z,16.62
2023-05-13T06:31:51.821Z,16.69
2023-05-13T06:33:02.049Z,16.77
2023-05-13T06:34:08.286Z,16.87
2023-05-13T06:35:13.166Z,16.96
2023-05-13T06:36:17.935Z,17.07
2023-05-13T06:37:21.957Z,17.15
2023-05-13T06:38:28.341Z,17.25
2023-05-13T06:39:32.571Z,17.32
2023-05-13T06:40:37.747Z,17.40
2023-05-13T06:41:42.313Z,17.47
2023-05-13T06:42:48.360Z,17.51
2023-05-13T06:43:58.040Z,17.55
2023-05-13T06:45:13.206Z,17.57
2023-05-13T06:46:19.151Z,17.59
2023-05-13T06:47:24.413Z,17.60
2023-05-13T06:48:30.808Z,17.61
2023-05-13T06:49:35.374Z,17.64
2023-05-13T06:50:42.020Z,17.70
2023-05-13T06:51:46.334Z,17.81
2023-05-13T06:52:53.138Z,17.94
2023-05-13T06:53:58.110Z,18.04
2023-05-13T06:55:03.623Z,18.17
2023-05-13T06:56:08.090Z,18.30
2023-05-13T06:57:13.774Z,18.46
2023-05-13T06:58:18.730Z,18.66
2023-05-13T06:59:26.253Z,18.95
2023-05-13T07:00:31.863Z,19.29
2023-05-13T07:01:36.696Z,19.64
2023-05-13T07:02:40.823Z,19.97
2023-05-13T07:03:46.454Z,20.21
2023-05-13T07:04:51.461Z,20.42
2023-05-13T07:05:57.653Z,20.56
2023-05-13T07:07:02.167Z,20.66
2023-05-13T07:08:09.360Z,20.74
2023-05-13T07:09:14.465Z,20.80
2023-05-13T07:10:20.617Z,20.92
2023-05-13T07:11:25.985Z,21.04
2023-05-13T07:12:31.470Z,21.17
2023-05-13T07:13:35.915Z,21.29
2023-05-13T07:14:45.827Z,21.46
2023-05-13T07:15:51.614Z,21.63
2023-05-13T07:16:55.776Z,21.73
2023-05-13T07:18:01.398Z,21.84
2023-05-13T07:19:06.180Z,21.92
2023-05-13T07:20:12.245Z,21.93
2023-05-13T07:21:15.457Z,21.86
2023-05-13T07:22:22.723Z,21.76
2023-05-13T07:23:27.614Z,21.63
2023-05-13T07:24:33.449Z,21.52
2023-05-13T07:25:38.295Z,21.46
2023-05-13T07:26:44.146Z,21.48
2023-05-13T07:27:48.511Z,21.62
2023-05-13T07:28:54.006Z,21.76
2023-05-13T07:29:59.347Z,21.84
2023-05-13T07:31:03.765Z,21.80
2023-05-13T07:32:08.169Z,21.76
2023-05-13T07:33:14.331Z,21.85
2023-05-13T07:34:17.884Z,22.04
2023-05-13T07:35:24.118Z,22.29
2023-05-13T07:36:28.365Z,22.60
2023-05-13T07:37:33.049Z,23.00
2023-05-13T07:38:39.032Z,23.38
2023-05-13T07:39:44.279Z,23.70
2023-05-13T07:40:49.915Z,23.96
2023-05-13T07:41:55.360Z,24.17
2023-05-13T07:43:01.484Z,24.28
2023-05-13T07:44:07.356Z,24.29
2023-05-13T07:45:13.592Z,24.16
2023-05-13T07:46:18.114Z,23.95
2023-05-13T07:47:25.810Z,23.69
2023-05-13T07:48:29.741Z,23.44
2023-05-13T07:49:34.401Z,23.22
2023-05-13T07:50:40.049Z,23.02
2023-05-13T07:51:45.726Z,22.86
2023-05-13T07:52:51.488Z,22.73
2023-05-13T07:53:58.554Z,22.72
2023-05-13T07:55:03.477Z,22.74
2023-05-13T07:56:08.393Z,22.86
2023-05-13T07:57:13.843Z,23.01
2023-05-13T07:58:18.869Z,23.23
2023-05-13T07:59:24.195Z,23.43
2023-05-13T08:00:31.199Z,23.50
2023-05-13T08:01:37.037Z,23.59
2023-05-13T08:02:40.544Z,23.68
2023-05-13T08:03:46.121Z,23.87
2023-05-13T08:04:50.765Z,24.11
2023-05-13T08:05:57.412Z,24.27
2023-05-13T08:07:03.460Z,24.36
2023-05-13T08:08:08.345Z,24.58
2023-05-13T08:09:15.052Z,24.98
2023-05-13T08:10:20.783Z,25.45
2023-05-13T08:11:26.835Z,26.01
2023-05-13T08:12:31.247Z,26.66
2023-05-13T08:13:37.041Z,27.30
2023-05-13T08:14:41.702Z,27.90
2023-05-13T08:15:48.637Z,28.38
2023-05-13T08:16:53.405Z,28.79
2023-05-13T08:17:58.419Z,29.19
2023-05-13T08:19:03.049Z,29.61
2023-05-13T08:20:09.519Z,30.04
2023-05-13T08:21:15.234Z,30.50
2023-05-13T08:22:18.989Z,30.96
2023-05-13T08:23:28.343Z,31.39
2023-05-13T08:24:43.441Z,31.83
2023-05-13T08:25:48.151Z,32.09
2023-05-13T08:26:53.746Z,32.29
2023-05-13T08:28:01.191Z,32.53
2023-05-13T08:29:06.345Z,32.75
2023-05-13T08:30:10.503Z,32.87
2023-05-13T08:31:17.706Z,32.89
2023-05-13T08:32:21.427Z,33.02
2023-05-13T08:33:26.965Z,33.15
2023-05-13T08:34:31.501Z,33.31
2023-05-13T08:35:37.590Z,33.50
2023-05-13T08:36:41.467Z,33.77
2023-05-13T08:37:48.894Z,34.07
2023-05-13T08:38:55.728Z,34.28
2023-05-13T08:40:03.872Z,34.22
2023-05-13T08:41:08.772Z,34.13
2023-05-13T08:42:20.113Z,34.03
2023-05-13T08:43:29.080Z,34.07
2023-05-13T08:44:35.776Z,34.18
2023-05-13T08:45:40.398Z,34.27
2023-05-13T08:46:56.464Z,34.19
2023-05-13T08:48:03.553Z,34.07
2023-05-13T08:49:10.902Z,34.04
2023-05-13T08:50:16.290Z,34.13
2023-05-13T08:51:22.505Z,34.15
2023-05-13T08:52:28.848Z,34.17
2023-05-13T08:53:37.818Z,34.17
2023-05-13T08:54:46.264Z,34.24
2023-05-13T08:55:51.259Z,34.33
2023-05-13T08:56:56.443Z,34.32
2023-05-13T08:58:02.136Z,34.25
2023-05-13T08:59:07.158Z,34.15
2023-05-13T09:00:12.882Z,34.00
2023-05-13T09:01:21.148Z,34.01
2023-05-13T09:02:27.538Z,33.89
2023-05-13T09:03:33.949Z,33.77
2023-05-13T09:04:42.084Z,33.82
2023-05-13T09:05:48.103Z,33.82
2023-05-13T09:06:52.255Z,33.60
2023-05-13T09:07:58.873Z,33.09
2023-05-13T09:09:07.092Z,32.60
2023-05-13T09:10:14.659Z,32.15
2023-05-13T09:11:19.998Z,31.73
2023-05-13T09:12:48.386Z,31.19
2023-05-13T09:14:00.918Z,30.83
2023-05-13T09:15:10.758Z,30.61
2023-05-13T09:16:17.549Z,30.54
2023-05-13T09:17:23.166Z,30.64
2023-05-13T09:18:34.572Z,30.84
2023-05-13T09:19:39.783Z,30.93
2023-05-13T09:20:46.663Z,30.92
2023-05-13T09:21:56.515Z,31.02
2023-05-13T09:23:04.879Z,31.09
2023-05-13T09:24:12.279Z,31.12
2023-05-13T09:25:20.512Z,31.10
2023-05-13T09:26:32.618Z,31.13
2023-05-13T09:27:42.293Z,31.15
2023-05-13T09:28:49.038Z,31.14
2023-05-13T09:30:01.723Z,31.07
2023-05-13T09:31:06.653Z,31.03
2023-05-13T09:32:12.019Z,30.91
2023-05-13T09:33:21.079Z,30.81
2023-05-13T09:34:32.029Z,30.74
2023-05-13T09:35:38.510Z,30.68
2023-05-13T09:36:42.739Z,30.35
2023-05-13T09:37:51.059Z,29.99
2023-05-13T09:38:56.709Z,29.68
2023-05-13T09:40:04.482Z,29.40
2023-05-13T09:41:09.553Z,29.18
2023-05-13T09:42:19.788Z,28.91
2023-05-13T09:43:27.048Z,28.64
2023-05-13T09:44:31.977Z,28.51
2023-05-13T09:45:39.527Z,28.42
2023-05-13T09:46:45.513Z,28.38
2023-05-13T09:47:55.640Z,28.42
2023-05-13T09:48:59.862Z,28.37
2023-05-13T09:50:09.238Z,28.11
2023-05-13T09:51:16.739Z,27.77
2023-05-13T09:52:24.118Z,27.44
2023-05-13T09:53:30.140Z,27.29
2023-05-13T09:54:37.950Z,27.20
2023-05-13T09:55:48.916Z,27.18
2023-05-13T09:57:02.073Z,27.15
2023-05-13T09:58:13.924Z,27.06
2023-05-13T09:59:21.448Z,26.99
2023-05-13T10:00:32.714Z,26.86
2023-05-13T10:01:38.937Z,26.68
2023-05-13T10:02:46.582Z,26.52
2023-05-13T10:03:56.419Z,26.34
2023-05-13T10:05:03.723Z,26.25
2023-05-13T10:06:12.361Z,26.17
2023-05-13T10:07:18.631Z,26.10
2023-05-13T10:08:25.135Z,26.00
2023-05-13T10:09:33.429Z,25.97
2023-05-13T10:10:40.212Z,25.92
2023-05-13T10:11:48.249Z,25.89
2023-05-13T10:12:54.023Z,25.82
2023-05-13T10:14:03.484Z,25.74
2023-05-13T10:15:09.200Z,25.71
2023-05-13T10:16:18.728Z,25.67
2023-05-13T10:17:24.785Z,25.54
2023-05-13T10:18:31.438Z,25.42
2023-05-13T10:19:38.391Z,25.40
2023-05-13T10:20:43.711Z,25.35
2023-05-13T10:21:52.216Z,25.25
2023-05-13T10:23:00.935Z,25.18
2023-05-13T10:24:07.706Z,25.17
2023-05-13T10:25:14.445Z,25.18
2023-05-13T10:26:20.264Z,25.19
2023-05-13T10:27:28.490Z,25.17
2023-05-13T10:28:33.679Z,25.10
2023-05-13T10:29:42.246Z,25.12
2023-05-13T10:30:50.086Z,25.25
2023-05-13T10:31:58.652Z,25.48
2023-05-13T10:33:05.134Z,25.65
2023-05-13T10:34:10.934Z,25.73
2023-05-13T10:35:17.469Z,25.75
2023-05-13T10:36:47.756Z,25.63
2023-05-13T10:38:05.218Z,25.60
2023-05-13T10:39:40.141Z,25.61
2023-05-13T10:41:05.361Z,25.68
2023-05-13T10:42:44.392Z,25.66
2023-05-13T10:43:58.941Z,25.65
2023-05-13T10:45:03.368Z,25.63
2023-05-13T10:46:13.805Z,25.63
2023-05-13T10:47:21.606Z,25.61
2023-05-13T10:48:28.383Z,25.61
2023-05-13T10:49:36.660Z,25.66
2023-05-13T10:50:53.411Z,25.67
2023-05-13T10:52:05.951Z,25.51
2023-05-13T10:53:23.385Z,25.35
2023-05-13T10:54:29.832Z,25.31
2023-05-13T10:55:48.269Z,25.26
2023-05-13T10:56:59.475Z,25.16
2023-05-13T10:58:13.122Z,25.01
2023-05-13T10:59:21.543Z,24.87
2023-05-13T11:00:32.740Z,24.79
2023-05-13T11:01:43.598Z,24.76
2023-05-13T11:02:53.758Z,24.75
2023-05-13T11:04:02.476Z,24.79
2023-05-13T11:05:08.880Z,24.85
2023-05-13T11:06:20.095Z,24.95
2023-05-13T11:07:24.037Z,25.08
2023-05-13T11:08:46.218Z,25.20
2023-05-13T11:09:52.330Z,25.27
2023-05-13T11:10:57.650Z,25.30
2023-05-13T11:12:03.784Z,25.31
2023-05-13T11:13:10.666Z,25.27
2023-05-13T11:14:21.480Z,25.22
2023-05-13T11:15:26.252Z,25.23
2023-05-13T11:16:32.350Z,25.22
2023-05-13T11:17:39.199Z,25.15
2023-05-13T11:18:46.799Z,25.09
2023-05-13T11:19:55.393Z,25.02
2023-05-13T11:21:05.692Z,24.94
2023-05-13T11:22:12.164Z,24.91
2023-05-13T11:23:20.463Z,24.92
2023-05-13T11:24:27.218Z,24.88
2023-05-13T11:25:30.493Z,24.81
2023-05-13T11:26:47.439Z,24.71
2023-05-13T11:27:52.501Z,24.65
2023-05-13T11:29:03.351Z,24.60
2023-05-13T11:30:09.492Z,24.56
2023-05-13T11:31:18.555Z,24.56
2023-05-13T11:32:54.463Z,24.52
2023-05-13T11:34:09.948Z,24.50
2023-05-13T11:35:15.728Z,24.59
2023-05-13T11:36:20.783Z,24.69
2023-05-13T11:37:27.717Z,24.82
2023-05-13T11:38:34.174Z,24.91
2023-05-13T11:39:41.673Z,25.01
2023-05-13T11:40:46.120Z,25.06
2023-05-13T11:41:52.568Z,25.03
2023-05-13T11:42:56.655Z,24.91
2023-05-13T11:44:03.319Z,24.81
2023-05-13T11:45:10.950Z,24.70
2023-05-13T11:46:23.461Z,24.69
2023-05-13T11:47:29.735Z,24.72
2023-05-13T11:48:35.407Z,24.68
2023-05-13T11:49:42.480Z,24.64
2023-05-13T11:51:19.698Z,24.52
2023-05-13T11:52:24.686Z,24.44
2023-05-13T11:53:28.438Z,24.38
2023-05-13T11:54:33.028Z,24.33
2023-05-13T11:55:38.821Z,24.33
2023-05-13T11:56:44.474Z,24.39
2023-05-13T11:57:52.073Z,24.46
2023-05-13T11:58:59.037Z,24.49
2023-05-13T12:00:07.790Z,24.50
2023-05-13T12:01:23.300Z,24.45
2023-05-13T12:02:30.236Z,24.45
2023-05-13T12:03:35.781Z,24.46
2023-05-13T12:04:40.079Z,24.49
2023-05-13T12:05:45.733Z,24.55
2023-05-13T12:06:52.561Z,24.64
2023-05-13T12:07:59.793Z,24.76
2023-05-13T12:09:08.269Z,24.91
2023-05-13T12:10:13.748Z,25.00
2023-05-13T12:11:19.511Z,25.05
2023-05-13T12:12:24.902Z,25.07
2023-05-13T12:13:28.652Z,25.07
2023-05-13T12:14:34.578Z,25.04
2023-05-13T12:15:38.464Z,24.98
2023-05-13T12:16:43.346Z,24.98
2023-05-13T12:17:47.689Z,24.99
2023-05-13T12:18:58.896Z,25.02
2023-05-13T12:20:07.947Z,25.01
2023-05-13T12:21:19.992Z,25.01
2023-05-13T12:22:23.821Z,24.98
2023-05-13T12:23:27.829Z,24.98
2023-05-13T12:24:35.628Z,25.01
2023-05-13T12:25:45.399Z,25.04
2023-05-13T12:26:51.517Z,25.11
2023-05-13T12:27:55.528Z,25.12
2023-05-13T12:29:01.883Z,25.12
2023-05-13T12:30:08.494Z,25.08
2023-05-13T12:31:21.183Z,25.06
2023-05-13T12:32:26.422Z,25.08
2023-05-13T12:33:32.672Z,25.07
2023-05-13T12:34:39.729Z,25.05
2023-05-13T12:35:50.414Z,24.98
2023-05-13T12:36:57.445Z,24.91
2023-05-13T12:38:05.332Z,24.82
2023-05-13T12:39:12.841Z,24.81
2023-05-13T12:40:19.291Z,24.83
2023-05-13T12:41:27.519Z,24.82
2023-05-13T12:42:35.646Z,24.85
2023-05-13T12:43:44.248Z,24.91
2023-05-13T12:44:49.712Z,24.97
2023-05-13T12:45:57.629Z,25.03
2023-05-13T12:47:04.143Z,25.00
2023-05-13T12:48:11.308Z,24.94
2023-05-13T12:49:18.605Z,24.86
2023-05-13T12:50:24.579Z,24.76
2023-05-13T12:51:33.621Z,24.72
2023-05-13T12:52:38.447Z,24.64
2023-05-13T12:53:44.872Z,24.56
2023-05-13T12:54:49.872Z,24.53
2023-05-13T12:55:56.628Z,24.54
2023-05-13T12:57:05.700Z,24.59
2023-05-13T12:58:12.022Z,24.68
2023-05-13T12:59:19.921Z,24.77
2023-05-13T13:00:26.434Z,24.87
2023-05-13T13:01:33.611Z,24.95
2023-05-13T13:02:40.473Z,24.95
2023-05-13T13:03:46.995Z,24.97
2023-05-13T13:04:52.564Z,24.93
2023-05-13T13:05:59.659Z,24.89
2023-05-13T13:07:05.788Z,24.91
2023-05-13T13:08:13.800Z,24.92
2023-05-13T13:09:20.269Z,24.95
2023-05-13T13:10:25.320Z,24.89
2023-05-13T13:11:33.038Z,24.81
2023-05-13T13:12:37.235Z,24.78
2023-05-13T13:13:44.959Z,24.72
2023-05-13T13:14:51.448Z,24.64
2023-05-13T13:15:59.717Z,24.52
2023-05-13T13:17:06.326Z,24.43
2023-05-13T13:18:14.462Z,24.35
2023-05-13T13:19:24.038Z,24.30
2023-05-13T13:20:32.105Z,24.19
2023-05-13T13:21:39.145Z,24.04
2023-05-13T13:22:48.281Z,23.91
2023-05-13T13:23:55.346Z,23.67
2023-05-13T13:25:01.659Z,23.54
2023-05-13T13:26:08.935Z,23.42
2023-05-13T13:27:14.044Z,23.31
2023-05-13T13:28:17.979Z,23.24
2023-05-13T13:29:24.065Z,23.14
2023-05-13T13:30:30.475Z,23.04
2023-05-13T13:31:34.716Z,22.96
2023-05-13T13:32:39.689Z,22.85
2023-05-13T13:33:44.244Z,22.73
2023-05-13T13:34:48.719Z,22.64
2023-05-13T13:35:54.112Z,22.54
2023-05-13T13:37:00.150Z,22.47
2023-05-13T13:38:06.195Z,22.39
2023-05-13T13:39:10.796Z,22.32
2023-05-13T13:40:19.392Z,22.28
2023-05-13T13:41:28.077Z,22.22
2023-05-13T13:42:43.355Z,22.15
2023-05-13T13:43:50.729Z,22.06
2023-05-13T13:44:56.672Z,22.01
2023-05-13T13:46:03.537Z,21.91
2023-05-13T13:47:10.451Z,21.80
2023-05-13T13:48:17.735Z,21.68
2023-05-13T13:49:24.347Z,21.56
2023-05-13T13:50:30.448Z,21.47
2023-05-13T13:51:35.571Z,21.38
2023-05-13T13:52:44.310Z,21.32
2023-05-13T13:53:48.252Z,21.20
2023-05-13T13:54:53.465Z,21.17
2023-05-13T13:56:00.613Z,21.11
2023-05-13T13:57:05.706Z,21.04
2023-05-13T13:58:12.322Z,20.99
2023-05-13T13:59:17.235Z,20.94
2023-05-13T14:00:24.220Z,20.87
2023-05-13T14:01:29.648Z,20.83
2023-05-13T14:02:35.871Z,20.79
2023-05-13T14:03:42.555Z,20.75
2023-05-13T14:04:49.189Z,20.70
2023-05-13T14:05:55.793Z,20.67
2023-05-13T14:07:01.992Z,20.65
2023-05-13T14:08:09.346Z,20.62
2023-05-13T14:09:16.079Z,20.58
2023-05-13T14:10:22.872Z,20.55
2023-05-13T14:11:29.896Z,20.51
2023-05-13T14:12:36.316Z,20.50
2023-05-13T14:13:41.441Z,20.52
2023-05-13T14:14:47.548Z,20.53
2023-05-13T14:15:57.091Z,20.54
2023-05-13T14:17:02.409Z,20.53
2023-05-13T14:18:08.705Z,20.51
2023-05-13T14:19:14.428Z,20.48
2023-05-13T14:20:21.813Z,20.45